Time;durP1;ratioP1;P1;durP2;ratioP2;P2;SDS_P1;SDS_P2;PMS_P1;PMS_P2;Temp;Humidity;BMP_temperature;BMP_pressure;BME280_temperature;BME280_humidity;BME280_pressure;Samples;Min_cycle;Max_cycle;Signal;HPM_P1;HPM_P2
2021/08/04 00:00:00;;;;;;;17.98;7.78;;;;;;;;;;5135380;27;20047;-69
2021/08/04 00:02:26;;;;;;;10.75;6.47;;;;;;;;;;5135369;27;20256;-67
2021/08/04 00:04:53;;;;;;;13.63;8.23;;;;;;;;;;5116645;27;20031;-67
2021/08/04 00:07:22;;;;;;;14.20;8.20;;;;;;;;;;5134992;27;20165;-68
2021/08/04 00:09:49;;;;;;;16.17;9.00;;;;;;;;;;5134962;27;20027;-67
2021/08/04 00:12:15;;;;;;;16.45;8.75;;;;;;;;;;5134887;27;20110;-66
2021/08/04 00:14:41;;;;;;;18.15;11.38;;;;;;;;;;5134877;27;20057;-67
2021/08/04 00:17:10;;;;;;;17.73;9.38;;;;;;;;;;5116321;27;20122;-67
2021/08/04 00:19:37;;;;;;;16.58;8.15;;;;;;;;;;5134761;27;20099;-69
2021/08/04 00:22:04;;;;;;;10.02;7.80;;;;;;;;;;5134471;27;20054;-68
2021/08/04 00:24:30;;;;;;;17.90;7.95;;;;;;;;;;5134957;27;20027;-66
2021/08/04 00:26:56;;;;;;;17.38;8.25;;;;;;;;;;5134634;27;20027;-68
2021/08/04 00:29:23;;;;;;;17.90;8.80;;;;;;;;;;5134632;27;20058;-67
2021/08/04 00:31:49;;;;;;;13.07;8.60;;;;;;;;;;5134752;27;20355;-68
2021/08/04 00:34:15;;;;;;;19.67;8.55;;;;;;;;;;5116033;27;20022;-66
2021/08/04 00:36:41;;;;;;;14.02;8.80;;;;;;;;;;5115758;27;20106;-66
2021/08/04 00:39:07;;;;;;;18.83;9.23;;;;;;;;;;5134366;27;20098;-67
2021/08/04 00:41:38;;;;;;;12.20;8.40;;;;;;;;;;5134377;27;20055;-67
2021/08/04 00:44:04;;;;;;;11.70;8.40;;;;;;;;;;5134345;27;20030;-67
2021/08/04 00:46:30;;;;;;;14.80;7.97;;;;;;;;;;5134385;27;20463;-66
2021/08/04 00:48:57;;;;;;;14.57;8.75;;;;;;;;;;5112047;28;20040;-66
2021/08/04 00:51:23;;;;;;;11.48;7.72;;;;;;;;;;5112789;28;20471;-70
2021/08/04 00:53:49;;;;;;;11.30;7.80;;;;;;;;;;5113706;28;20047;-66
2021/08/04 00:56:15;;;;;;;13.25;7.88;;;;;;;;;;5112391;28;20110;-68
2021/08/04 00:58:42;;;;;;;11.70;8.02;;;;;;;;;;5111662;28;20044;-66
2021/08/04 01:01:44;;;;;;;10.80;6.97;;;;;;;;;;5111020;28;20059;-66
2021/08/04 01:04:12;;;;;;;10.52;7.88;;;;;;;;;;5029233;28;20040;-67
2021/08/04 01:06:56;;;;;;;9.02;7.50;;;;;;;;;;5096902;28;20028;-67
2021/08/04 01:09:24;;;;;;;12.95;7.63;;;;;;;;;;5111758;28;20030;-66
2021/08/04 01:12:01;;;;;;;10.40;7.75;;;;;;;;;;5111518;28;20061;-67
2021/08/04 01:14:28;;;;;;;12.85;8.13;;;;;;;;;;5113059;28;20503;-67
2021/08/04 01:16:55;;;;;;;14.43;8.05;;;;;;;;;;5113469;28;20039;-68
2021/08/04 01:19:40;;;;;;;12.07;8.27;;;;;;;;;;5113433;28;20047;-68
2021/08/04 01:22:25;;;;;;;12.82;7.97;;;;;;;;;;5112106;28;20032;-66
2021/08/04 01:24:54;;;;;;;11.35;8.55;;;;;;;;;;5113510;28;20368;-66
2021/08/04 01:27:21;;;;;;;15.65;7.97;;;;;;;;;;5113302;28;20068;-69
2021/08/04 01:29:48;;;;;;;10.48;8.05;;;;;;;;;;5113699;28;20023;-66
2021/08/04 01:32:15;;;;;;;10.27;7.15;;;;;;;;;;5113329;28;20103;-68
2021/08/04 01:34:41;;;;;;;12.80;8.23;;;;;;;;;;5113298;28;20024;-67
2021/08/04 01:37:08;;;;;;;15.85;8.18;;;;;;;;;;5113230;28;20122;-66
2021/08/04 01:39:34;;;;;;;14.27;9.15;;;;;;;;;;5111895;28;20053;-67
2021/08/04 01:42:02;;;;;;;11.52;8.23;;;;;;;;;;5111896;28;20055;-68
2021/08/04 01:44:29;;;;;;;17.02;8.45;;;;;;;;;;5111802;28;20027;-68
2021/08/04 01:46:56;;;;;;;15.70;8.90;;;;;;;;;;5113172;28;20586;-66
2021/08/04 01:49:22;;;;;;;11.77;8.80;;;;;;;;;;5111369;28;20071;-69
2021/08/04 01:51:49;;;;;;;16.08;8.70;;;;;;;;;;5111827;28;20065;-69
2021/08/04 01:54:18;;;;;;;13.65;8.85;;;;;;;;;;5113151;28;20043;-70
2021/08/04 01:56:45;;;;;;;22.17;12.85;;;;;;;;;;5113114;28;20028;-70
2021/08/04 01:59:11;;;;;;;26.38;15.85;;;;;;;;;;5113059;28;20107;-70
2021/08/04 02:01:38;;;;;;;18.73;10.85;;;;;;;;;;5113780;28;20035;-69
2021/08/04 02:04:05;;;;;;;15.13;9.38;;;;;;;;;;5116825;28;20098;-66
2021/08/04 02:06:33;;;;;;;12.55;8.57;;;;;;;;;;5116864;28;20019;-69
2021/08/04 02:09:03;;;;;;;14.65;9.50;;;;;;;;;;5116794;28;20055;-70
2021/08/04 02:11:39;;;;;;;14.57;9.27;;;;;;;;;;5116673;28;20137;-68
2021/08/04 02:14:08;;;;;;;12.68;8.60;;;;;;;;;;5116464;28;20480;-67
2021/08/04 02:16:40;;;;;;;17.77;9.57;;;;;;;;;;5115384;28;20486;-68
2021/08/04 02:19:10;;;;;;;17.10;9.40;;;;;;;;;;5115264;28;20036;-68
2021/08/04 02:21:37;;;;;;;20.13;9.75;;;;;;;;;;5114993;28;20073;-67
2021/08/04 02:24:04;;;;;;;17.20;9.52;;;;;;;;;;5116477;28;20165;-68
2021/08/04 02:26:31;;;;;;;13.70;8.55;;;;;;;;;;5116151;28;20019;-67
2021/08/04 02:28:58;;;;;;;16.35;8.80;;;;;;;;;;5116425;28;20066;-68
2021/08/04 02:31:24;;;;;;;21.02;9.95;;;;;;;;;;5116322;28;20024;-68
2021/08/04 02:33:51;;;;;;;16.55;9.55;;;;;;;;;;5116227;28;20111;-68
2021/08/04 02:36:18;;;;;;;21.17;9.48;;;;;;;;;;5114985;28;20055;-69
2021/08/04 02:38:44;;;;;;;22.30;10.15;;;;;;;;;;5116136;28;20033;-67
2021/08/04 02:41:11;;;;;;;17.85;9.57;;;;;;;;;;5116128;28;20414;-69
2021/08/04 02:43:37;;;;;;;16.70;9.23;;;;;;;;;;5116136;28;20023;-69
2021/08/04 02:46:07;;;;;;;14.45;9.02;;;;;;;;;;5116143;28;20118;-67
2021/08/04 02:48:34;;;;;;;16.65;9.95;;;;;;;;;;5123178;27;20130;-68
2021/08/04 02:51:04;;;;;;;18.20;9.43;;;;;;;;;;5136504;27;20019;-68
2021/08/04 02:53:30;;;;;;;16.30;9.95;;;;;;;;;;5117728;27;20046;-69
2021/08/04 02:55:57;;;;;;;22.05;9.27;;;;;;;;;;5118262;27;20432;-67
2021/08/04 02:58:23;;;;;;;15.60;9.35;;;;;;;;;;5136273;27;20031;-68
2021/08/04 03:00:49;;;;;;;20.45;9.65;;;;;;;;;;5136099;27;20029;-70
2021/08/04 03:03:16;;;;;;;17.25;9.88;;;;;;;;;;5136258;27;20038;-68
2021/08/04 03:05:42;;;;;;;18.23;10.60;;;;;;;;;;5136234;27;20481;-69
2021/08/04 03:08:08;;;;;;;25.00;11.10;;;;;;;;;;5117779;27;20031;-68
2021/08/04 03:10:34;;;;;;;18.17;10.30;;;;;;;;;;5136164;27;20051;-67
2021/08/04 03:13:00;;;;;;;19.85;11.02;;;;;;;;;;5117309;27;20023;-67
2021/08/04 03:15:27;;;;;;;17.77;9.80;;;;;;;;;;5135686;27;20100;-67
2021/08/04 03:17:53;;;;;;;17.67;9.45;;;;;;;;;;5117546;27;20386;-68
2021/08/04 03:20:19;;;;;;;20.90;9.95;;;;;;;;;;5135948;27;20019;-67
2021/08/04 03:22:47;;;;;;;12.50;10.07;;;;;;;;;;5117202;27;20104;-67
2021/08/04 03:25:14;;;;;;;23.48;9.80;;;;;;;;;;5136138;27;20543;-69
2021/08/04 03:27:40;;;;;;;18.63;10.15;;;;;;;;;;5135811;27;20470;-68
2021/08/04 03:30:07;;;;;;;19.90;10.63;;;;;;;;;;5117313;27;20028;-68
2021/08/04 03:32:33;;;;;;;17.48;10.93;;;;;;;;;;5117268;27;20048;-67
2021/08/04 03:34:59;;;;;;;19.25;10.75;;;;;;;;;;5135687;27;20106;-68
2021/08/04 03:37:26;;;;;;;18.85;10.13;;;;;;;;;;5135333;27;20118;-67
2021/08/04 03:39:52;;;;;;;20.65;10.57;;;;;;;;;;5117099;27;20060;-66
2021/08/04 03:42:18;;;;;;;13.38;10.15;;;;;;;;;;5135744;27;20482;-68
2021/08/04 03:44:44;;;;;;;15.02;10.73;;;;;;;;;;5135685;27;20113;-71
2021/08/04 03:47:10;;;;;;;19.27;10.55;;;;;;;;;;5135400;27;20023;-69
2021/08/04 03:49:37;;;;;;;18.83;10.25;;;;;;;;;;5134984;27;20595;-68
2021/08/04 03:52:03;;;;;;;15.43;10.45;;;;;;;;;;5135325;27;20015;-69
2021/08/04 03:54:29;;;;;;;18.83;11.40;;;;;;;;;;5135564;27;20101;-69
2021/08/04 03:56:56;;;;;;;18.65;9.30;;;;;;;;;;5135184;27;20068;-68
2021/08/04 03:59:23;;;;;;;15.70;10.57;;;;;;;;;;5135151;27;20023;-68
2021/08/04 04:01:49;;;;;;;18.17;10.80;;;;;;;;;;5116995;27;20405;-67
2021/08/04 04:04:16;;;;;;;19.70;10.13;;;;;;;;;;5116661;27;20122;-67
2021/08/04 04:06:42;;;;;;;17.88;10.07;;;;;;;;;;5134733;27;20517;-67
2021/08/04 04:09:08;;;;;;;16.30;9.77;;;;;;;;;;5134912;27;20066;-68
2021/08/04 04:11:36;;;;;;;16.58;10.27;;;;;;;;;;5134876;27;20543;-69
2021/08/04 04:14:03;;;;;;;14.30;9.98;;;;;;;;;;5134876;27;20023;-66
2021/08/04 04:16:29;;;;;;;14.60;10.23;;;;;;;;;;5134801;27;20110;-67
2021/08/04 04:18:55;;;;;;;24.45;10.65;;;;;;;;;;5134811;27;20031;-66
2021/08/04 04:21:21;;;;;;;31.88;10.63;;;;;;;;;;5116223;27;20109;-69
2021/08/04 04:23:47;;;;;;;22.70;9.95;;;;;;;;;;5134652;27;20161;-68
2021/08/04 04:26:14;;;;;;;19.27;9.73;;;;;;;;;;5134590;27;20017;-68
2021/08/04 04:28:40;;;;;;;25.67;11.35;;;;;;;;;;5116176;27;20110;-68
2021/08/04 04:31:06;;;;;;;19.30;10.48;;;;;;;;;;5134857;27;20106;-68
2021/08/04 04:33:35;;;;;;;18.30;10.63;;;;;;;;;;5134811;27;20027;-67
2021/08/04 04:36:01;;;;;;;22.02;10.32;;;;;;;;;;5134467;27;20467;-69
2021/08/04 04:38:27;;;;;;;17.50;10.40;;;;;;;;;;5115951;27;20039;-67
2021/08/04 04:40:54;;;;;;;17.35;10.35;;;;;;;;;;5115909;27;20114;-69
2021/08/04 04:43:20;;;;;;;20.42;10.07;;;;;;;;;;5134390;27;20099;-67
2021/08/04 04:45:52;;;;;;;14.48;10.23;;;;;;;;;;5134256;27;20026;-68
2021/08/04 04:48:19;;;;;;;14.70;11.13;;;;;;;;;;5134011;27;20051;-67
2021/08/04 04:50:45;;;;;;;15.57;10.32;;;;;;;;;;5134223;27;20046;-66
2021/08/04 04:53:11;;;;;;;16.67;10.75;;;;;;;;;;5134468;27;20023;-68
2021/08/04 04:55:37;;;;;;;14.98;10.30;;;;;;;;;;5115779;28;20062;-68
2021/08/04 04:58:04;;;;;;;13.82;10.18;;;;;;;;;;5115723;27;20147;-70
2021/08/04 05:00:30;;;;;;;14.40;9.75;;;;;;;;;;5134149;27;20030;-68
2021/08/04 05:02:56;;;;;;;15.93;9.60;;;;;;;;;;5134155;27;20124;-68
2021/08/04 05:05:22;;;;;;;15.25;8.68;;;;;;;;;;5134065;27;20102;-66
2021/08/04 05:07:49;;;;;;;18.27;9.25;;;;;;;;;;5134384;27;20179;-66
2021/08/04 05:10:15;;;;;;;11.57;9.02;;;;;;;;;;5134022;28;20106;-68
2021/08/04 05:12:41;;;;;;;12.25;8.60;;;;;;;;;;5133658;28;20106;-70
2021/08/04 05:15:07;;;;;;;11.68;8.20;;;;;;;;;;5134054;28;20095;-69
2021/08/04 05:17:34;;;;;;;11.60;8.32;;;;;;;;;;5115567;28;20108;-69
2021/08/04 05:20:00;;;;;;;15.68;8.43;;;;;;;;;;5133973;28;20102;-68
2021/08/04 05:22:26;;;;;;;11.85;7.50;;;;;;;;;;5133949;28;20107;-70
2021/08/04 05:24:52;;;;;;;16.20;8.13;;;;;;;;;;5133889;28;20080;-70
2021/08/04 05:27:18;;;;;;;18.58;8.18;;;;;;;;;;5133870;28;20031;-69
2021/08/04 05:29:45;;;;;;;11.20;7.05;;;;;;;;;;5115443;28;20123;-69
2021/08/04 05:32:11;;;;;;;12.05;7.35;;;;;;;;;;5115307;28;20106;-71
2021/08/04 05:34:37;;;;;;;12.23;7.45;;;;;;;;;;5133752;28;20110;-67
2021/08/04 05:37:04;;;;;;;10.48;6.72;;;;;;;;;;5134203;27;20472;-69
2021/08/04 05:39:30;;;;;;;13.10;7.93;;;;;;;;;;5119369;27;20038;-69
2021/08/04 05:41:56;;;;;;;15.85;7.25;;;;;;;;;;5119364;27;20047;-68
2021/08/04 05:44:22;;;;;;;10.50;5.93;;;;;;;;;;5137503;27;20034;-70
2021/08/04 05:46:48;;;;;;;8.82;6.10;;;;;;;;;;5119245;27;20019;-68
2021/08/04 05:49:15;;;;;;;10.13;5.05;;;;;;;;;;5137511;27;20087;-69
2021/08/04 05:51:41;;;;;;;7.85;6.30;;;;;;;;;;5137370;27;20102;-69
2021/08/04 05:54:07;;;;;;;10.68;5.57;;;;;;;;;;5137630;27;20106;-68
2021/08/04 05:56:33;;;;;;;11.95;5.40;;;;;;;;;;5136500;27;20035;-69
2021/08/04 05:59:03;;;;;;;7.45;6.05;;;;;;;;;;5116937;27;20084;-67
2021/08/04 06:01:29;;;;;;;10.20;6.10;;;;;;;;;;5135585;27;20165;-69
2021/08/04 06:03:55;;;;;;;8.85;5.65;;;;;;;;;;5135594;27;20022;-68
2021/08/04 06:06:21;;;;;;;8.40;5.78;;;;;;;;;;5135686;27;20015;-68
2021/08/04 06:08:47;;;;;;;12.73;6.13;;;;;;;;;;5135377;27;20027;-68
2021/08/04 06:11:14;;;;;;;11.23;6.07;;;;;;;;;;5135714;27;20308;-68
2021/08/04 06:13:40;;;;;;;11.93;6.20;;;;;;;;;;5137103;27;20058;-68
2021/08/04 06:16:06;;;;;;;7.22;5.93;;;;;;;;;;5137151;27;20031;-69
2021/08/04 06:18:32;;;;;;;7.90;6.18;;;;;;;;;;5118553;27;20062;-70
2021/08/04 06:20:58;;;;;;;8.60;5.88;;;;;;;;;;5137345;27;20027;-69
2021/08/04 06:23:25;;;;;;;22.00;6.70;;;;;;;;;;5118585;27;20055;-68
2021/08/04 06:25:51;;;;;;;9.50;6.93;;;;;;;;;;5118575;27;20027;-67
2021/08/04 06:28:17;;;;;;;12.20;6.30;;;;;;;;;;5136977;27;20034;-68
2021/08/04 06:30:43;;;;;;;9.95;6.30;;;;;;;;;;5136909;27;20592;-70
2021/08/04 06:33:09;;;;;;;8.73;5.97;;;;;;;;;;5118428;27;20030;-69
2021/08/04 06:35:36;;;;;;;7.78;5.78;;;;;;;;;;5118364;27;20045;-66
2021/08/04 06:38:03;;;;;;;10.80;6.13;;;;;;;;;;5118154;27;20065;-68
2021/08/04 06:40:29;;;;;;;11.15;6.15;;;;;;;;;;5136226;27;20375;-71
2021/08/04 06:42:55;;;;;;;12.38;6.07;;;;;;;;;;5117826;27;20047;-68
2021/08/04 06:45:22;;;;;;;8.27;6.63;;;;;;;;;;5136605;27;20041;-66
2021/08/04 06:47:48;;;;;;;6.97;5.80;;;;;;;;;;5136157;27;20156;-68
2021/08/04 06:50:14;;;;;;;11.05;6.53;;;;;;;;;;5135873;27;20019;-67
2021/08/04 06:52:40;;;;;;;12.57;5.75;;;;;;;;;;5136455;27;20533;-68
2021/08/04 06:55:06;;;;;;;9.73;6.38;;;;;;;;;;5136431;27;20103;-67
2021/08/04 06:57:33;;;;;;;12.48;6.50;;;;;;;;;;5117844;27;20158;-68
2021/08/04 06:59:59;;;;;;;8.50;5.82;;;;;;;;;;5136310;27;20094;-66
2021/08/04 07:02:25;;;;;;;9.07;5.65;;;;;;;;;;5117829;27;20087;-69
2021/08/04 07:04:51;;;;;;;8.88;5.97;;;;;;;;;;5136217;27;20027;-69
2021/08/04 07:07:18;;;;;;;9.65;5.68;;;;;;;;;;5136159;27;20488;-66
2021/08/04 07:09:44;;;;;;;10.32;5.72;;;;;;;;;;5135772;27;20012;-67
2021/08/04 07:12:11;;;;;;;12.25;5.97;;;;;;;;;;5136208;27;20027;-67
2021/08/04 07:14:38;;;;;;;9.30;6.22;;;;;;;;;;5117392;27;20133;-66
2021/08/04 07:17:05;;;;;;;9.80;5.75;;;;;;;;;;5135769;27;20109;-67
2021/08/04 07:19:32;;;;;;;11.77;5.80;;;;;;;;;;5135834;27;20019;-67
2021/08/04 07:21:58;;;;;;;6.85;5.13;;;;;;;;;;5135744;27;20075;-67
2021/08/04 07:24:24;;;;;;;11.57;5.75;;;;;;;;;;5117324;27;20072;-66
2021/08/04 07:26:51;;;;;;;9.55;6.57;;;;;;;;;;5135571;27;20020;-67
2021/08/04 07:29:17;;;;;;;11.00;5.65;;;;;;;;;;5135740;27;20071;-67
2021/08/04 07:31:43;;;;;;;8.85;6.15;;;;;;;;;;5135402;27;20110;-66
2021/08/04 07:34:11;;;;;;;11.13;7.05;;;;;;;;;;5135491;27;20114;-68
2021/08/04 07:36:38;;;;;;;7.65;5.72;;;;;;;;;;5135360;27;20102;-68
2021/08/04 07:39:04;;;;;;;7.68;5.97;;;;;;;;;;5135391;27;20113;-66
2021/08/04 07:41:30;;;;;;;11.80;6.70;;;;;;;;;;5116955;27;20111;-68
2021/08/04 07:43:57;;;;;;;10.20;6.22;;;;;;;;;;5116946;27;20559;-70
2021/08/04 07:46:24;;;;;;;8.25;5.28;;;;;;;;;;5116843;27;20466;-67
2021/08/04 07:48:50;;;;;;;8.23;5.35;;;;;;;;;;5134941;27;20059;-69
2021/08/04 07:51:16;;;;;;;9.40;4.95;;;;;;;;;;5135131;27;20015;-67
2021/08/04 07:53:43;;;;;;;8.60;5.88;;;;;;;;;;5135024;27;20031;-67
2021/08/04 07:56:10;;;;;;;10.18;5.32;;;;;;;;;;5134691;27;20015;-65
2021/08/04 07:58:36;;;;;;;8.40;5.25;;;;;;;;;;5134963;27;20019;-66
2021/08/04 08:01:03;;;;;;;8.32;5.38;;;;;;;;;;5134378;27;20110;-67
2021/08/04 08:03:29;;;;;;;8.15;5.28;;;;;;;;;;5135234;27;20120;-70
2021/08/04 08:05:55;;;;;;;24.60;6.00;;;;;;;;;;5116374;27;20108;-67
2021/08/04 08:08:21;;;;;;;16.27;5.00;;;;;;;;;;5134460;27;20096;-67
2021/08/04 08:10:49;;;;;;;5.93;4.72;;;;;;;;;;5134701;27;20097;-68
2021/08/04 08:13:16;;;;;;;9.93;4.15;;;;;;;;;;5134412;27;20349;-70
2021/08/04 08:15:42;;;;;;;8.27;5.28;;;;;;;;;;5134882;27;20042;-71
2021/08/04 08:18:09;;;;;;;29.40;5.93;;;;;;;;;;5116176;27;20122;-68
2021/08/04 08:20:36;;;;;;;8.20;5.25;;;;;;;;;;5116369;27;20024;-69
2021/08/04 08:23:02;;;;;;;10.30;4.88;;;;;;;;;;5134638;27;20052;-69
2021/08/04 08:25:29;;;;;;;5.75;4.63;;;;;;;;;;5134622;27;20059;-69
2021/08/04 08:27:55;;;;;;;16.85;5.65;;;;;;;;;;5134580;27;20019;-70
2021/08/04 08:30:22;;;;;;;13.23;6.40;;;;;;;;;;5134829;27;20058;-71
2021/08/04 08:32:48;;;;;;;15.10;5.28;;;28.20;75.30;;;;;;5116058;27;20058;-69
2021/08/04 08:35:16;;;;;;;10.63;5.10;;;28.30;75.70;;;;;;5134472;27;20414;-70
2021/08/04 08:37:44;;;;;;;5.65;4.72;;;28.50;76.10;;;;;;5115873;27;20034;-70
2021/08/04 08:40:10;;;;;;;8.60;4.68;;;28.70;74.30;;;;;;5134425;27;20091;-70
2021/08/04 08:42:38;;;;;;;16.33;5.18;;;28.80;80.10;;;;;;5134357;27;20072;-70
2021/08/04 08:45:05;;;;;;;10.90;4.93;;;28.90;75.20;;;;;;5133982;27;20030;-72
2021/08/04 08:47:31;;;;;;;8.10;4.30;;;29.10;73.90;;;;;;5133862;27;20052;-71
2021/08/04 08:50:00;;;;;;;10.07;4.57;;;29.00;72.00;;;;;;5134433;27;20131;-70
2021/08/04 08:52:26;;;;;;;6.50;4.47;;;;;;;;;;5115740;27;20076;-69
2021/08/04 08:54:53;;;;;;;8.30;4.22;;;29.00;72.40;;;;;;5133980;27;20095;-72
2021/08/04 08:57:19;;;;;;;7.13;4.15;;;29.30;71.10;;;;;;5133823;27;20038;-71
2021/08/04 08:59:45;;;;;;;9.15;4.00;;;29.50;71.60;;;;;;5115751;28;20382;-71
2021/08/04 09:02:11;;;;;;;9.77;4.05;;;29.50;69.60;;;;;;5133740;27;20023;-71
2021/08/04 09:04:37;;;;;;;6.57;3.50;;;29.70;70.50;;;;;;5134181;27;20027;-72
2021/08/04 09:07:04;;;;;;;5.95;3.65;;;29.60;70.00;;;;;;5133792;27;20023;-70
2021/08/04 09:09:34;;;;;;;4.30;3.47;;;29.50;67.40;;;;;;5134118;27;20046;-69
2021/08/04 09:12:04;;;;;;;6.10;3.28;;;29.50;67.20;;;;;;5133445;27;20030;-69
2021/08/04 09:14:33;;;;;;;6.15;3.22;;;29.20;67.80;;;;;;5115437;28;20019;-72
2021/08/04 09:17:12;;;;;;;5.60;3.60;;;29.60;68.20;;;;;;5115291;28;20031;-70
2021/08/04 09:19:43;;;;;;;6.80;3.47;;;30.00;67.10;;;;;;5133657;28;20119;-70
2021/08/04 09:22:13;;;;;;;4.40;3.55;;;30.10;65.20;;;;;;5134354;28;20060;-70
2021/08/04 09:24:52;;;;;;;5.72;3.63;;;30.10;64.70;;;;;;5133806;28;20031;-70
2021/08/04 09:27:18;;;;;;;5.00;3.78;;;30.00;67.80;;;;;;5115050;28;20509;-69
2021/08/04 09:29:58;;;;;;;4.95;3.92;;;30.40;68.30;;;;;;5132795;28;20106;-69
2021/08/04 09:32:26;;;;;;;6.43;3.50;;;30.80;92.10;;;;;;5113529;28;20075;-72
2021/08/04 09:34:52;;;;;;;5.00;3.33;;;30.80;82.30;;;;;;5132646;28;20042;-71
2021/08/04 09:37:19;;;;;;;8.88;3.50;;;31.00;78.20;;;;;;5114652;28;20387;-70
2021/08/04 09:39:58;;;;;;;4.68;3.45;;;31.00;73.80;;;;;;5133327;28;20026;-71
2021/08/04 09:42:48;;;;;;;5.65;3.10;;;31.00;68.20;;;;;;5133656;28;20019;-70
2021/08/04 09:45:17;;;;;;;4.30;2.83;;;31.00;62.90;;;;;;5119768;28;20039;-69
2021/08/04 09:48:00;;;;;;;5.03;3.15;;;31.30;61.60;;;;;;5132906;28;20151;-70
2021/08/04 09:50:27;;;;;;;6.93;3.05;;;31.40;63.20;;;;;;5133559;28;20134;-71
2021/08/04 09:52:56;;;;;;;6.20;3.38;;;31.50;63.40;;;;;;5133539;28;20110;-70
2021/08/04 09:55:23;;;;;;;6.32;3.42;;;31.50;62.50;;;;;;5115092;28;20475;-69
2021/08/04 09:57:53;;;;;;;7.68;3.22;;;31.60;60.60;;;;;;5133579;28;20034;-71
2021/08/04 10:00:21;;;;;;;20.38;6.75;;;31.50;61.30;;;;;;5133230;28;20034;-70
2021/08/04 10:02:48;;;;;;;22.13;6.07;;;31.80;68.80;;;;;;5132715;28;20059;-71
2021/08/04 10:05:26;;;;;;;37.60;8.50;;;31.90;77.10;;;;;;5115151;28;20477;-70
2021/08/04 10:08:09;;;;;;;13.88;5.38;;;32.10;84.70;;;;;;5134390;28;20031;-71
2021/08/04 10:10:35;;;;;;;11.50;5.15;;;;;;;;;;5133093;28;20156;-72
2021/08/04 10:13:06;;;;;;;11.25;4.05;;;32.50;95.40;;;;;;5135854;28;20020;-72
2021/08/04 10:15:39;;;;;;;15.10;5.70;;;32.60;93.30;;;;;;5115764;28;20787;-69
2021/08/04 10:18:12;;;;;;;5.03;3.53;;;32.70;87.80;;;;;;5132776;28;20035;-71
2021/08/04 10:20:39;;;;;;;4.97;3.13;;;32.50;85.50;;;;;;5131795;28;20093;-69
2021/08/04 10:23:08;;;;;;;9.88;3.47;;;32.70;85.30;;;;;;5132249;27;20079;-69
2021/08/04 10:25:35;;;;;;;4.22;3.10;;;32.80;60.30;;;;;;5135776;27;20027;-69
2021/08/04 10:28:03;;;;;;;9.35;3.78;;;33.00;59.70;;;;;;5134665;27;20467;-71
2021/08/04 10:30:30;;;;;;;6.45;2.70;;;33.10;59.00;;;;;;5117368;27;20049;-70
2021/08/04 10:32:56;;;;;;;7.32;3.20;;;32.90;59.50;;;;;;5136839;27;20542;-70
2021/08/04 10:35:22;;;;;;;7.07;3.45;;;33.40;58.90;;;;;;5136428;27;20031;-71
2021/08/04 10:37:48;;;;;;;4.15;3.00;;;34.00;58.80;;;;;;5136073;27;20073;-70
2021/08/04 10:40:17;;;;;;;5.20;3.40;;;34.40;57.40;;;;;;5135251;27;20027;-70
2021/08/04 10:42:47;;;;;;;3.85;2.92;;;34.70;55.70;;;;;;5119187;27;20059;-69
2021/08/04 10:45:27;;;;;;;6.50;3.17;;;35.10;54.10;;;;;;5136497;27;20063;-71
2021/08/04 10:48:16;;;;;;;6.40;3.10;;;35.60;55.90;;;;;;5133541;27;20058;-70
2021/08/04 10:51:19;;;;;;;8.70;2.78;;;36.20;53.40;;;;;;5135658;27;20097;-73
2021/08/04 10:54:00;;;;;;;5.95;2.90;;;36.60;51.70;;;;;;5135573;27;20031;-73
2021/08/04 10:56:32;;;;;;;4.82;3.05;;;36.70;51.60;;;;;;5136631;27;20031;-73
2021/08/04 10:59:13;;;;;;;5.72;2.92;;;37.40;50.50;;;;;;5117749;27;20118;-71
2021/08/04 11:01:40;;;;;;;3.47;3.05;;;37.20;50.30;;;;;;5136336;27;20027;-71
2021/08/04 11:04:09;;;;;;;10.48;2.65;;;37.90;48.40;;;;;;5135517;27;20023;-71
2021/08/04 11:06:35;;;;;;;5.40;2.90;;;38.50;48.50;;;;;;5134317;27;20027;-73
2021/08/04 11:09:13;;;;;;;5.00;2.50;;;38.80;47.90;;;;;;5135915;27;20080;-71
2021/08/04 11:12:00;;;;;;;8.43;2.95;;;37.60;48.20;;;;;;5136163;27;20040;-71
2021/08/04 11:14:46;;;;;;;5.35;2.80;;;37.30;48.80;;;;;;5136165;27;20546;-71
2021/08/04 11:17:14;;;;;;;4.20;2.60;;;37.30;47.60;;;;;;5135959;27;20459;-71
2021/08/04 11:20:10;;;;;;;3.25;2.55;;;38.60;47.70;;;;;;5117561;27;20034;-71
2021/08/04 11:22:39;;;;;;;9.07;3.45;;;39.30;46.50;;;;;;5015628;28;20064;-71
2021/08/04 11:25:35;;;;;;;5.93;2.65;;;40.00;46.60;;;;;;5032344;28;20033;-72
2021/08/04 11:28:03;;;;;;;3.55;2.65;;;41.00;45.30;;;;;;5032329;28;20470;-71
2021/08/04 11:30:39;;;;;;;5.13;2.40;;;41.30;44.20;;;;;;5032266;28;20075;-72
2021/08/04 11:33:38;;;;;;;5.43;2.35;;;41.30;44.80;;;;;;5013615;28;20041;-71
2021/08/04 11:36:11;;;;;;;4.65;2.90;;;41.10;44.80;;;;;;5014822;28;20119;-71
2021/08/04 11:38:53;;;;;;;5.95;3.08;;;41.90;44.10;;;;;;5015341;28;20068;-74
2021/08/04 11:41:33;;;;;;;9.05;2.97;;;;;;;;;;5032119;28;20037;-75
2021/08/04 11:44:19;;;;;;;2.88;2.50;;;42.70;41.00;;;;;;5032079;28;20117;-71
2021/08/04 11:46:55;;;;;;;8.88;2.20;;;43.00;41.40;;;;;;5031921;28;20121;-70
2021/08/04 11:49:25;;;;;;;2.83;2.20;;;43.30;41.80;;;;;;5014975;28;20045;-72
2021/08/04 11:51:52;;;;;;;;;;;43.50;41.00;;;;;;5015671;28;20091;-72
2021/08/04 11:54:35;;;;;;;6.47;2.40;;;43.50;40.50;;;;;;5015125;28;19909;-72
2021/08/04 11:57:03;;;;;;;7.70;2.53;;;44.10;40.30;;;;;;5031744;28;20036;-73
2021/08/04 11:59:31;;;;;;;5.57;2.72;;;43.80;38.80;;;;;;5104600;27;20047;-72
2021/08/04 12:02:03;;;;;;;3.65;2.20;;;43.70;40.20;;;;;;5135145;27;20015;-72
2021/08/04 12:04:31;;;;;;;4.63;2.30;;;44.00;39.90;;;;;;5134713;27;20536;-72
2021/08/04 12:07:00;;;;;;;3.13;2.22;;;44.40;38.70;;;;;;5135063;27;20019;-72
2021/08/04 12:09:31;;;;;;;4.95;2.55;;;44.70;38.50;;;;;;5134905;27;20379;-72
2021/08/04 12:11:58;;;;;;;3.47;2.10;;;44.50;39.20;;;;;;5116503;27;20024;-73
2021/08/04 12:14:24;;;;;;;3.33;2.45;;;44.70;38.80;;;;;;5134725;27;20027;-73
2021/08/04 12:16:54;;;;;;;4.03;2.40;;;43.50;39.30;;;;;;5116278;27;20031;-73
2021/08/04 12:19:32;;;;;;;8.93;2.47;;;43.70;39.80;;;;;;5135035;27;20039;-73
2021/08/04 12:21:58;;;;;;;4.97;2.80;;;44.30;40.50;;;;;;5134828;27;20414;-73
2021/08/04 12:24:24;;;;;;;4.82;2.30;;;45.10;39.50;;;;;;5134714;27;20161;-72
2021/08/04 12:26:51;;;;;;;4.68;2.20;;;;;;;;;;5134725;27;20031;-73
2021/08/04 12:29:23;;;;;;;7.30;2.30;;;45.50;39.10;;;;;;5116192;27;20023;-72
2021/08/04 12:32:06;;;;;;;4.13;2.22;;;;;;;;;;5115923;27;20019;-73
2021/08/04 12:34:42;;;;;;;7.20;2.28;;;46.40;37.40;;;;;;5134371;27;20027;-72
2021/08/04 12:37:10;;;;;;;5.07;2.28;;;46.60;38.30;;;;;;5133522;27;20024;-72
2021/08/04 12:39:38;;;;;;;2.95;2.25;;;;;;;;;;5134473;27;20055;-73
2021/08/04 12:42:04;;;;;;;5.90;2.83;;;;;;;;;;5134525;27;20015;-71
2021/08/04 12:44:30;;;;;;;11.93;2.67;;;46.00;39.70;;;;;;5134415;27;20023;-71
2021/08/04 12:46:59;;;;;;;9.95;2.80;;;45.30;38.60;;;;;;5133418;27;20077;-71
2021/08/04 12:49:27;;;;;;;5.13;2.28;;;;;;;;;;5133948;27;20039;-74
2021/08/04 12:51:57;;;;;;;7.70;2.38;;;45.30;39.60;;;;;;5134358;27;20501;-72
2021/08/04 12:54:24;;;;;;;;;;;;;;;;;;5134777;27;20424;-71
2021/08/04 12:56:50;;;;;;;2.10;1.90;;;45.20;46.80;;;;;;5115773;27;19904;-72
2021/08/04 12:59:19;;;;;;;8.20;2.10;;;;;;;;;;5115730;27;20098;-72
2021/08/04 13:01:48;;;;;;;3.25;1.90;;;;;;;;;;5134224;27;20011;-72
2021/08/04 13:04:15;;;;;;;3.47;2.05;;;46.00;38.30;;;;;;5134218;27;20020;-71
2021/08/04 13:06:50;;;;;;;4.72;2.13;;;45.60;38.90;;;;;;5134148;27;20501;-73
2021/08/04 13:09:17;;;;;;;3.63;2.20;;;45.00;38.20;;;;;;5134076;27;20027;-72
2021/08/04 13:11:43;;;;;;;3.05;2.20;;;44.90;36.60;;;;;;5134124;27;20026;-74
2021/08/04 13:14:10;;;;;;;3.97;2.20;;;44.80;37.80;;;;;;5134049;28;20027;-73
2021/08/04 13:16:41;;;;;;;5.13;2.72;;;43.70;39.10;;;;;;5134306;28;20106;-72
2021/08/04 13:19:24;;;;;;;4.25;2.17;;;43.60;38.80;;;;;;5133947;28;20084;-73
2021/08/04 13:22:07;;;;;;;7.28;2.00;;;44.70;39.70;;;;;;5134022;28;20031;-72
2021/08/04 13:24:38;;;;;;;6.00;2.35;;;45.80;38.20;;;;;;5133860;28;20020;-73
2021/08/04 13:27:26;;;;;;;2.30;2.10;;;46.70;46.80;;;;;;5133572;28;20473;-73
2021/08/04 13:29:54;;;;;;;3.72;2.00;;;;;;;;;;5133885;28;20023;-72
2021/08/04 13:32:27;;;;;;;3.90;2.28;;;;;;;;;;5133579;28;20476;-73
2021/08/04 13:34:53;;;;;;;2.72;2.00;;;;;;;;;;5133797;28;20027;-73
2021/08/04 13:37:20;;;;;;;6.55;2.40;;;;;;;;;;5133692;28;20463;-71
2021/08/04 13:39:46;;;;;;;7.30;2.40;;;44.30;76.50;;;;;;5133832;28;20534;-71
2021/08/04 13:42:13;;;;;;;3.13;2.00;;;;;;;;;;5133794;28;20046;-73
2021/08/04 13:44:39;;;;;;;4.90;2.38;;;;;;;;;;5134003;28;20027;-72
2021/08/04 13:47:05;;;;;;;4.95;2.65;;;;;;;;;;5115285;28;20020;-72
2021/08/04 13:49:31;;;;;;;5.53;2.60;;;44.70;39.00;;;;;;5133191;28;20548;-73
2021/08/04 13:51:57;;;;;;;4.70;2.38;;;46.90;47.70;;;;;;5115299;28;20019;-72
2021/08/04 13:54:23;;;;;;;3.10;1.98;;;48.00;37.30;;;;;;5133896;28;20452;-71
2021/08/04 13:56:49;;;;;;;3.95;2.10;;;48.80;36.50;;;;;;5133610;28;20035;-72
2021/08/04 13:59:15;;;;;;;5.32;2.33;;;49.10;36.20;;;;;;5136658;27;20479;-73
2021/08/04 14:01:40;;;;;;;3.85;2.08;;;49.40;35.50;;;;;;5137507;27;20038;-74